sensor_id;sensor_type;location;lat;lon;timestamp;P1;durP1;ratioP1;P2;durP2;ratioP2
63499;SDS011;49654;51.142;14.924;2023-05-14T00:01:40;18.40;;;12.15;;
63499;SDS011;49654;51.142;14.924;2023-05-14T00:04:07;13.52;;;12.13;;
63499;SDS011;49654;51.142;14.924;2023-05-14T00:06:35;16.50;;;11.70;;
63499;SDS011;49654;51.142;14.924;2023-05-14T00:09:03;15.73;;;11.85;;
63499;SDS011;49654;51.142;14.924;2023-05-14T00:11:31;15.77;;;11.25;;
63499;SDS011;49654;51.142;14.924;2023-05-14T00:13:58;16.90;;;11.45;;
63499;SDS011;49654;51.142;14.924;2023-05-14T00:16:25;15.25;;;11.43;;
63499;SDS011;49654;51.142;14.924;2023-05-14T00:18:52;16.00;;;12.35;;
63499;SDS011;49654;51.142;14.924;2023-05-14T00:21:18;17.92;;;11.90;;
63499;SDS011;49654;51.142;14.924;2023-05-14T00:23:46;12.68;;;10.95;;
63499;SDS011;49654;51.142;14.924;2023-05-14T00:26:14;14.25;;;10.93;;
63499;SDS011;49654;51.142;14.924;2023-05-14T00:28:41;13.90;;;11.77;;
63499;SDS011;49654;51.142;14.924;2023-05-14T00:31:08;13.85;;;11.48;;
63499;SDS011;49654;51.142;14.924;2023-05-14T00:33:35;15.63;;;11.63;;
63499;SDS011;49654;51.142;14.924;2023-05-14T00:36:02;14.80;;;11.77;;
63499;SDS011;49654;51.142;14.924;2023-05-14T00:38:29;12.50;;;10.57;;
63499;SDS011;49654;51.142;14.924;2023-05-14T00:40:56;12.88;;;11.57;;
63499;SDS011;49654;51.142;14.924;2023-05-14T00:43:24;13.75;;;11.05;;
63499;SDS011;49654;51.142;14.924;2023-05-14T00:45:52;11.90;;;10.70;;
63499;SDS011;49654;51.142;14.924;2023-05-14T00:48:20;14.13;;;10.70;;
63499;SDS011;49654;51.142;14.924;2023-05-14T00:50:48;15.40;;;11.32;;
63499;SDS011;49654;51.142;14.924;2023-05-14T00:53:16;13.32;;;10.80;;
63499;SDS011;49654;51.142;14.924;2023-05-14T00:55:44;12.73;;;10.23;;
63499;SDS011;49654;51.142;14.924;2023-05-14T00:58:12;12.65;;;11.32;;
63499;SDS011;49654;51.142;14.924;2023-05-14T01:00:41;12.63;;;10.63;;
63499;SDS011;49654;51.142;14.924;2023-05-14T01:03:08;10.90;;;9.60;;
63499;SDS011;49654;51.142;14.924;2023-05-14T01:05:35;16.17;;;12.48;;
63499;SDS011;49654;51.142;14.924;2023-05-14T01:08:08;13.40;;;10.95;;
63499;SDS011;49654;51.142;14.924;2023-05-14T01:10:44;13.80;;;11.85;;
63499;SDS011;49654;51.142;14.924;2023-05-14T01:13:17;14.13;;;12.63;;
63499;SDS011;49654;51.142;14.924;2023-05-14T01:15:53;14.50;;;12.45;;
63499;SDS011;49654;51.142;14.924;2023-05-14T01:18:22;14.80;;;12.85;;
63499;SDS011;49654;51.142;14.924;2023-05-14T01:20:50;15.68;;;12.50;;
63499;SDS011;49654;51.142;14.924;2023-05-14T01:23:19;14.00;;;11.88;;
63499;SDS011;49654;51.142;14.924;2023-05-14T01:25:46;14.63;;;12.55;;
63499;SDS011;49654;51.142;14.924;2023-05-14T01:28:14;14.48;;;12.85;;
63499;SDS011;49654;51.142;14.924;2023-05-14T01:30:45;15.18;;;12.75;;
63499;SDS011;49654;51.142;14.924;2023-05-14T01:33:17;18.17;;;14.32;;
63499;SDS011;49654;51.142;14.924;2023-05-14T01:35:47;14.57;;;12.68;;
63499;SDS011;49654;51.142;14.924;2023-05-14T01:38:19;16.20;;;13.10;;
63499;SDS011;49654;51.142;14.924;2023-05-14T01:40:47;14.43;;;12.55;;
63499;SDS011;49654;51.142;14.924;2023-05-14T01:43:15;14.65;;;13.07;;
63499;SDS011;49654;51.142;14.924;2023-05-14T01:45:43;15.80;;;12.95;;
63499;SDS011;49654;51.142;14.924;2023-05-14T01:48:10;17.08;;;12.93;;
63499;SDS011;49654;51.142;14.924;2023-05-14T01:50:37;15.48;;;12.82;;
63499;SDS011;49654;51.142;14.924;2023-05-14T01:53:03;17.27;;;14.32;;
63499;SDS011;49654;51.142;14.924;2023-05-14T01:55:32;16.13;;;13.35;;
63499;SDS011;49654;51.142;14.924;2023-05-14T01:57:59;16.35;;;13.60;;
63499;SDS011;49654;51.142;14.924;2023-05-14T02:00:26;16.20;;;12.52;;
63499;SDS011;49654;51.142;14.924;2023-05-14T02:02:53;14.50;;;12.68;;
63499;SDS011;49654;51.142;14.924;2023-05-14T02:05:20;15.85;;;13.30;;
63499;SDS011;49654;51.142;14.924;2023-05-14T02:07:46;15.15;;;13.45;;
63499;SDS011;49654;51.142;14.924;2023-05-14T02:10:13;15.35;;;13.18;;
63499;SDS011;49654;51.142;14.924;2023-05-14T02:12:42;16.90;;;13.40;;
63499;SDS011;49654;51.142;14.924;2023-05-14T02:15:09;16.45;;;13.77;;
63499;SDS011;49654;51.142;14.924;2023-05-14T02:17:36;14.90;;;13.32;;
63499;SDS011;49654;51.142;14.924;2023-05-14T02:20:04;16.40;;;13.80;;
63499;SDS011;49654;51.142;14.924;2023-05-14T02:22:32;14.88;;;12.88;;
63499;SDS011;49654;51.142;14.924;2023-05-14T02:24:59;17.75;;;13.45;;
63499;SDS011;49654;51.142;14.924;2023-05-14T02:27:26;15.05;;;13.43;;
63499;SDS011;49654;51.142;14.924;2023-05-14T02:29:54;14.05;;;12.43;;
63499;SDS011;49654;51.142;14.924;2023-05-14T02:32:25;15.40;;;13.38;;
63499;SDS011;49654;51.142;14.924;2023-05-14T02:34:52;15.93;;;13.35;;
63499;SDS011;49654;51.142;14.924;2023-05-14T02:37:19;16.35;;;13.35;;
63499;SDS011;49654;51.142;14.924;2023-05-14T02:39:46;14.55;;;12.73;;
63499;SDS011;49654;51.142;14.924;2023-05-14T02:42:13;14.32;;;12.68;;
63499;SDS011;49654;51.142;14.924;2023-05-14T02:44:40;14.65;;;13.05;;
63499;SDS011;49654;51.142;14.924;2023-05-14T02:47:08;15.68;;;12.40;;
63499;SDS011;49654;51.142;14.924;2023-05-14T02:49:35;15.73;;;12.75;;
63499;SDS011;49654;51.142;14.924;2023-05-14T02:52:02;15.77;;;13.75;;
63499;SDS011;49654;51.142;14.924;2023-05-14T02:54:30;15.85;;;14.05;;
63499;SDS011;49654;51.142;14.924;2023-05-14T02:56:56;15.63;;;13.80;;
63499;SDS011;49654;51.142;14.924;2023-05-14T02:59:23;15.60;;;13.07;;
63499;SDS011;49654;51.142;14.924;2023-05-14T03:01:50;14.38;;;12.45;;
63499;SDS011;49654;51.142;14.924;2023-05-14T03:04:19;18.25;;;13.43;;
63499;SDS011;49654;51.142;14.924;2023-05-14T03:06:46;14.77;;;12.30;;
63499;SDS011;49654;51.142;14.924;2023-05-14T03:09:12;15.02;;;13.38;;
63499;SDS011;49654;51.142;14.924;2023-05-14T03:11:39;15.70;;;13.48;;
63499;SDS011;49654;51.142;14.924;2023-05-14T03:14:06;19.25;;;12.88;;
63499;SDS011;49654;51.142;14.924;2023-05-14T03:16:33;17.38;;;12.18;;
63499;SDS011;49654;51.142;14.924;2023-05-14T03:19:00;18.38;;;13.07;;
63499;SDS011;49654;51.142;14.924;2023-05-14T03:21:29;17.55;;;12.45;;
63499;SDS011;49654;51.142;14.924;2023-05-14T03:23:56;15.00;;;12.65;;
63499;SDS011;49654;51.142;14.924;2023-05-14T03:26:23;13.75;;;12.20;;
63499;SDS011;49654;51.142;14.924;2023-05-14T03:28:50;13.48;;;11.35;;
63499;SDS011;49654;51.142;14.924;2023-05-14T03:31:17;13.57;;;12.07;;
63499;SDS011;49654;51.142;14.924;2023-05-14T03:33:44;15.90;;;13.00;;
63499;SDS011;49654;51.142;14.924;2023-05-14T03:36:11;18.05;;;14.15;;
63499;SDS011;49654;51.142;14.924;2023-05-14T03:38:39;14.88;;;12.38;;
63499;SDS011;49654;51.142;14.924;2023-05-14T03:41:06;17.70;;;14.30;;
63499;SDS011;49654;51.142;14.924;2023-05-14T03:43:33;17.00;;;13.88;;
63499;SDS011;49654;51.142;14.924;2023-05-14T03:46:00;17.98;;;14.13;;
63499;SDS011;49654;51.142;14.924;2023-05-14T03:48:27;16.65;;;14.57;;
63499;SDS011;49654;51.142;14.924;2023-05-14T03:50:54;15.80;;;13.88;;
63499;SDS011;49654;51.142;14.924;2023-05-14T03:53:21;17.85;;;13.00;;
63499;SDS011;49654;51.142;14.924;2023-05-14T03:55:49;16.70;;;13.07;;
63499;SDS011;49654;51.142;14.924;2023-05-14T03:58:16;13.48;;;11.93;;
63499;SDS011;49654;51.142;14.924;2023-05-14T04:00:43;17.55;;;13.32;;
63499;SDS011;49654;51.142;14.924;2023-05-14T04:03:10;15.52;;;12.65;;
63499;SDS011;49654;51.142;14.924;2023-05-14T04:05:37;16.25;;;12.77;;
63499;SDS011;49654;51.142;14.924;2023-05-14T04:08:04;14.52;;;13.02;;
63499;SDS011;49654;51.142;14.924;2023-05-14T04:10:31;15.60;;;12.85;;
63499;SDS011;49654;51.142;14.924;2023-05-14T04:12:59;15.02;;;13.40;;
63499;SDS011;49654;51.142;14.924;2023-05-14T04:15:26;18.10;;;13.57;;
63499;SDS011;49654;51.142;14.924;2023-05-14T04:17:53;14.52;;;13.00;;
63499;SDS011;49654;51.142;14.924;2023-05-14T04:20:20;13.68;;;12.27;;
63499;SDS011;49654;51.142;14.924;2023-05-14T04:22:47;18.02;;;12.43;;
63499;SDS011;49654;51.142;14.924;2023-05-14T04:25:14;14.63;;;13.07;;
63499;SDS011;49654;51.142;14.924;2023-05-14T04:27:42;15.80;;;13.85;;
63499;SDS011;49654;51.142;14.924;2023-05-14T04:30:11;13.95;;;12.55;;
63499;SDS011;49654;51.142;14.924;2023-05-14T04:32:38;13.60;;;12.20;;
63499;SDS011;49654;51.142;14.924;2023-05-14T04:35:06;15.25;;;13.40;;
63499;SDS011;49654;51.142;14.924;2023-05-14T04:37:34;15.40;;;13.45;;
63499;SDS011;49654;51.142;14.924;2023-05-14T04:40:01;14.18;;;12.20;;
63499;SDS011;49654;51.142;14.924;2023-05-14T04:42:28;13.18;;;11.77;;
63499;SDS011;49654;51.142;14.924;2023-05-14T04:44:55;14.05;;;12.38;;
63499;SDS011;49654;51.142;14.924;2023-05-14T04:47:23;13.35;;;11.88;;
63499;SDS011;49654;51.142;14.924;2023-05-14T04:49:51;13.63;;;12.23;;
63499;SDS011;49654;51.142;14.924;2023-05-14T04:52:17;12.57;;;11.27;;
63499;SDS011;49654;51.142;14.924;2023-05-14T04:54:44;13.50;;;12.10;;
63499;SDS011;49654;51.142;14.924;2023-05-14T04:57:11;12.88;;;11.40;;
63499;SDS011;49654;51.142;14.924;2023-05-14T04:59:38;14.23;;;11.88;;
63499;SDS011;49654;51.142;14.924;2023-05-14T05:02:05;13.65;;;12.07;;
63499;SDS011;49654;51.142;14.924;2023-05-14T05:04:33;15.15;;;12.27;;
63499;SDS011;49654;51.142;14.924;2023-05-14T05:07:01;13.65;;;11.98;;
63499;SDS011;49654;51.142;14.924;2023-05-14T05:09:28;13.60;;;12.18;;
63499;SDS011;49654;51.142;14.924;2023-05-14T05:11:54;12.77;;;11.48;;
63499;SDS011;49654;51.142;14.924;2023-05-14T05:14:21;12.90;;;11.60;;
63499;SDS011;49654;51.142;14.924;2023-05-14T05:16:49;14.30;;;12.88;;
63499;SDS011;49654;51.142;14.924;2023-05-14T05:19:16;14.32;;;12.82;;
63499;SDS011;49654;51.142;14.924;2023-05-14T05:21:44;14.35;;;12.40;;
63499;SDS011;49654;51.142;14.924;2023-05-14T05:24:11;14.27;;;12.57;;
63499;SDS011;49654;51.142;14.924;2023-05-14T05:26:38;13.48;;;12.07;;
63499;SDS011;49654;51.142;14.924;2023-05-14T05:29:06;15.25;;;13.70;;
63499;SDS011;49654;51.142;14.924;2023-05-14T05:31:33;14.93;;;13.43;;
63499;SDS011;49654;51.142;14.924;2023-05-14T05:34:01;13.93;;;12.52;;
63499;SDS011;49654;51.142;14.924;2023-05-14T05:36:28;15.20;;;13.20;;
63499;SDS011;49654;51.142;14.924;2023-05-14T05:38:56;14.88;;;13.30;;
63499;SDS011;49654;51.142;14.924;2023-05-14T05:41:23;17.02;;;15.32;;
63499;SDS011;49654;51.142;14.924;2023-05-14T05:43:51;15.98;;;14.38;;
63499;SDS011;49654;51.142;14.924;2023-05-14T05:46:18;15.23;;;13.63;;
63499;SDS011;49654;51.142;14.924;2023-05-14T05:48:45;19.10;;;16.02;;
63499;SDS011;49654;51.142;14.924;2023-05-14T05:51:11;18.88;;;15.23;;
63499;SDS011;49654;51.142;14.924;2023-05-14T05:53:38;17.17;;;14.70;;
63499;SDS011;49654;51.142;14.924;2023-05-14T05:56:07;17.27;;;14.45;;
63499;SDS011;49654;51.142;14.924;2023-05-14T05:58:34;15.88;;;14.27;;
63499;SDS011;49654;51.142;14.924;2023-05-14T06:01:01;18.02;;;16.08;;
63499;SDS011;49654;51.142;14.924;2023-05-14T06:03:28;18.42;;;16.20;;
63499;SDS011;49654;51.142;14.924;2023-05-14T06:05:55;17.35;;;15.43;;
63499;SDS011;49654;51.142;14.924;2023-05-14T06:08:22;19.00;;;16.05;;
63499;SDS011;49654;51.142;14.924;2023-05-14T06:10:49;18.10;;;16.20;;
63499;SDS011;49654;51.142;14.924;2023-05-14T06:13:17;20.50;;;16.85;;
63499;SDS011;49654;51.142;14.924;2023-05-14T06:15:44;17.67;;;15.75;;
63499;SDS011;49654;51.142;14.924;2023-05-14T06:18:11;18.17;;;15.48;;
63499;SDS011;49654;51.142;14.924;2023-05-14T06:20:38;16.13;;;14.52;;
63499;SDS011;49654;51.142;14.924;2023-05-14T06:23:05;18.50;;;16.52;;
63499;SDS011;49654;51.142;14.924;2023-05-14T06:25:33;17.67;;;15.13;;
63499;SDS011;49654;51.142;14.924;2023-05-14T06:28:00;17.42;;;13.98;;
63499;SDS011;49654;51.142;14.924;2023-05-14T06:30:28;14.85;;;13.35;;
63499;SDS011;49654;51.142;14.924;2023-05-14T06:32:55;15.15;;;13.65;;
63499;SDS011;49654;51.142;14.924;2023-05-14T06:35:22;14.10;;;12.68;;
63499;SDS011;49654;51.142;14.924;2023-05-14T06:37:49;16.05;;;14.25;;
63499;SDS011;49654;51.142;14.924;2023-05-14T06:40:16;14.35;;;12.65;;
63499;SDS011;49654;51.142;14.924;2023-05-14T06:42:44;15.55;;;13.07;;
63499;SDS011;49654;51.142;14.924;2023-05-14T06:45:10;15.23;;;13.63;;
63499;SDS011;49654;51.142;14.924;2023-05-14T06:47:39;15.25;;;13.60;;
63499;SDS011;49654;51.142;14.924;2023-05-14T06:50:06;13.52;;;11.95;;
63499;SDS011;49654;51.142;14.924;2023-05-14T06:52:33;15.05;;;13.52;;
63499;SDS011;49654;51.142;14.924;2023-05-14T06:55:00;13.65;;;12.20;;
63499;SDS011;49654;51.142;14.924;2023-05-14T06:57:27;11.93;;;10.73;;
63499;SDS011;49654;51.142;14.924;2023-05-14T06:59:54;12.93;;;10.13;;
63499;SDS011;49654;51.142;14.924;2023-05-14T07:02:22;12.50;;;9.48;;
63499;SDS011;49654;51.142;14.924;2023-05-14T07:04:50;11.75;;;10.55;;
63499;SDS011;49654;51.142;14.924;2023-05-14T07:07:17;14.55;;;9.82;;
63499;SDS011;49654;51.142;14.924;2023-05-14T07:09:45;15.25;;;9.95;;
63499;SDS011;49654;51.142;14.924;2023-05-14T07:12:12;10.43;;;8.52;;
63499;SDS011;49654;51.142;14.924;2023-05-14T07:14:39;12.90;;;9.88;;
63499;SDS011;49654;51.142;14.924;2023-05-14T07:17:06;10.88;;;8.73;;
63499;SDS011;49654;51.142;14.924;2023-05-14T07:19:33;10.43;;;9.10;;
63499;SDS011;49654;51.142;14.924;2023-05-14T07:22:02;11.57;;;8.90;;
63499;SDS011;49654;51.142;14.924;2023-05-14T07:24:29;9.93;;;8.85;;
63499;SDS011;49654;51.142;14.924;2023-05-14T07:26:55;12.57;;;9.80;;
63499;SDS011;49654;51.142;14.924;2023-05-14T07:29:23;11.02;;;9.25;;
63499;SDS011;49654;51.142;14.924;2023-05-14T07:31:50;10.40;;;9.10;;
63499;SDS011;49654;51.142;14.924;2023-05-14T07:34:17;13.02;;;9.35;;
63499;SDS011;49654;51.142;14.924;2023-05-14T07:36:44;12.82;;;9.48;;
63499;SDS011;49654;51.142;14.924;2023-05-14T07:39:13;12.65;;;10.43;;
63499;SDS011;49654;51.142;14.924;2023-05-14T07:41:40;13.88;;;9.82;;
63499;SDS011;49654;51.142;14.924;2023-05-14T07:44:07;11.75;;;8.77;;
63499;SDS011;49654;51.142;14.924;2023-05-14T07:46:33;13.32;;;8.80;;
63499;SDS011;49654;51.142;14.924;2023-05-14T07:49:00;12.40;;;8.45;;
63499;SDS011;49654;51.142;14.924;2023-05-14T07:51:27;12.02;;;8.43;;
63499;SDS011;49654;51.142;14.924;2023-05-14T07:53:55;12.07;;;8.60;;
63499;SDS011;49654;51.142;14.924;2023-05-14T07:56:23;10.50;;;8.23;;
63499;SDS011;49654;51.142;14.924;2023-05-14T07:58:50;8.60;;;7.60;;
63499;SDS011;49654;51.142;14.924;2023-05-14T08:01:17;12.82;;;7.78;;
63499;SDS011;49654;51.142;14.924;2023-05-14T08:03:44;10.13;;;7.40;;
63499;SDS011;49654;51.142;14.924;2023-05-14T08:06:12;8.77;;;7.47;;
63499;SDS011;49654;51.142;14.924;2023-05-14T08:08:39;9.07;;;7.13;;
63499;SDS011;49654;51.142;14.924;2023-05-14T08:11:05;7.53;;;6.78;;
63499;SDS011;49654;51.142;14.924;2023-05-14T08:13:34;11.15;;;6.80;;
63499;SDS011;49654;51.142;14.924;2023-05-14T08:16:01;10.25;;;7.80;;
63499;SDS011;49654;51.142;14.924;2023-05-14T08:18:28;11.27;;;7.90;;
63499;SDS011;49654;51.142;14.924;2023-05-14T08:20:55;11.35;;;7.35;;
63499;SDS011;49654;51.142;14.924;2023-05-14T08:23:22;8.55;;;7.38;;
63499;SDS011;49654;51.142;14.924;2023-05-14T08:25:49;8.80;;;6.63;;
63499;SDS011;49654;51.142;14.924;2023-05-14T08:28:15;9.52;;;7.63;;
63499;SDS011;49654;51.142;14.924;2023-05-14T08:30:44;9.52;;;8.43;;
63499;SDS011;49654;51.142;14.924;2023-05-14T08:33:11;10.68;;;7.93;;
63499;SDS011;49654;51.142;14.924;2023-05-14T08:35:38;11.60;;;7.90;;
63499;SDS011;49654;51.142;14.924;2023-05-14T08:38:05;9.00;;;7.75;;
63499;SDS011;49654;51.142;14.924;2023-05-14T08:40:32;9.18;;;8.02;;
63499;SDS011;49654;51.142;14.924;2023-05-14T08:42:59;9.75;;;8.15;;
63499;SDS011;49654;51.142;14.924;2023-05-14T08:45:28;11.25;;;7.65;;
63499;SDS011;49654;51.142;14.924;2023-05-14T08:47:59;9.38;;;7.20;;
63499;SDS011;49654;51.142;14.924;2023-05-14T08:50:29;9.40;;;6.72;;
63499;SDS011;49654;51.142;14.924;2023-05-14T08:52:57;9.00;;;6.32;;
63499;SDS011;49654;51.142;14.924;2023-05-14T08:55:24;10.63;;;7.25;;
63499;SDS011;49654;51.142;14.924;2023-05-14T08:57:52;9.35;;;6.13;;
63499;SDS011;49654;51.142;14.924;2023-05-14T09:00:19;10.25;;;6.05;;
63499;SDS011;49654;51.142;14.924;2023-05-14T09:02:47;7.20;;;6.07;;
63499;SDS011;49654;51.142;14.924;2023-05-14T09:05:16;7.50;;;6.15;;
63499;SDS011;49654;51.142;14.924;2023-05-14T09:07:44;7.50;;;6.70;;
63499;SDS011;49654;51.142;14.924;2023-05-14T09:10:12;8.63;;;6.47;;
63499;SDS011;49654;51.142;14.924;2023-05-14T09:12:40;9.45;;;7.13;;
63499;SDS011;49654;51.142;14.924;2023-05-14T09:15:07;8.65;;;7.22;;
63499;SDS011;49654;51.142;14.924;2023-05-14T09:17:34;11.88;;;6.85;;
63499;SDS011;49654;51.142;14.924;2023-05-14T09:20:01;9.75;;;6.25;;
63499;SDS011;49654;51.142;14.924;2023-05-14T09:22:30;6.82;;;6.13;;
63499;SDS011;49654;51.142;14.924;2023-05-14T09:25:01;9.27;;;6.15;;
63499;SDS011;49654;51.142;14.924;2023-05-14T09:27:29;8.18;;;6.65;;
63499;SDS011;49654;51.142;14.924;2023-05-14T09:30:03;6.93;;;6.22;;
63499;SDS011;49654;51.142;14.924;2023-05-14T09:32:34;7.80;;;6.28;;
63499;SDS011;49654;51.142;14.924;2023-05-14T09:35:12;11.60;;;6.43;;
63499;SDS011;49654;51.142;14.924;2023-05-14T09:37:43;8.90;;;5.95;;
63499;SDS011;49654;51.142;14.924;2023-05-14T09:40:12;7.60;;;6.00;;
63499;SDS011;49654;51.142;14.924;2023-05-14T09:42:39;6.75;;;5.20;;
63499;SDS011;49654;51.142;14.924;2023-05-14T09:45:07;5.97;;;5.38;;
63499;SDS011;49654;51.142;14.924;2023-05-14T09:47:35;8.13;;;5.00;;
63499;SDS011;49654;51.142;14.924;2023-05-14T09:50:02;5.55;;;4.85;;
63499;SDS011;49654;51.142;14.924;2023-05-14T09:52:29;7.07;;;4.95;;
63499;SDS011;49654;51.142;14.924;2023-05-14T09:54:58;6.43;;;5.07;;
63499;SDS011;49654;51.142;14.924;2023-05-14T09:57:25;6.20;;;4.90;;
63499;SDS011;49654;51.142;14.924;2023-05-14T09:59:53;7.38;;;4.82;;
63499;SDS011;49654;51.142;14.924;2023-05-14T10:02:21;5.07;;;4.57;;
63499;SDS011;49654;51.142;14.924;2023-05-14T10:04:49;10.02;;;5.18;;
63499;SDS011;49654;51.142;14.924;2023-05-14T10:07:20;6.47;;;5.07;;
63499;SDS011;49654;51.142;14.924;2023-05-14T10:09:50;5.70;;;4.60;;
63499;SDS011;49654;51.142;14.924;2023-05-14T10:12:24;6.25;;;4.32;;
63499;SDS011;49654;51.142;14.924;2023-05-14T10:14:55;5.28;;;4.78;;
63499;SDS011;49654;51.142;14.924;2023-05-14T10:17:24;6.47;;;4.72;;
63499;SDS011;49654;51.142;14.924;2023-05-14T10:19:53;6.43;;;5.13;;
63499;SDS011;49654;51.142;14.924;2023-05-14T10:22:26;5.57;;;4.95;;
63499;SDS011;49654;51.142;14.924;2023-05-14T10:24:56;7.30;;;4.97;;
63499;SDS011;49654;51.142;14.924;2023-05-14T10:27:24;6.35;;;5.10;;
63499;SDS011;49654;51.142;14.924;2023-05-14T10:29:53;7.65;;;5.07;;
63499;SDS011;49654;51.142;14.924;2023-05-14T10:32:21;4.85;;;4.35;;
63499;SDS011;49654;51.142;14.924;2023-05-14T10:34:50;5.93;;;4.50;;
63499;SDS011;49654;51.142;14.924;2023-05-14T10:37:19;7.40;;;4.60;;
63499;SDS011;49654;51.142;14.924;2023-05-14T10:39:48;7.00;;;4.55;;
63499;SDS011;49654;51.142;14.924;2023-05-14T10:42:16;11.43;;;5.97;;
63499;SDS011;49654;51.142;14.924;2023-05-14T10:44:47;6.78;;;4.50;;
63499;SDS011;49654;51.142;14.924;2023-05-14T10:47:16;7.22;;;4.80;;
63499;SDS011;49654;51.142;14.924;2023-05-14T10:49:44;7.25;;;4.65;;
63499;SDS011;49654;51.142;14.924;2023-05-14T10:52:15;8.75;;;4.82;;
63499;SDS011;49654;51.142;14.924;2023-05-14T10:54:50;6.05;;;4.63;;
63499;SDS011;49654;51.142;14.924;2023-05-14T10:57:18;6.95;;;4.70;;
63499;SDS011;49654;51.142;14.924;2023-05-14T10:59:48;6.70;;;4.78;;
63499;SDS011;49654;51.142;14.924;2023-05-14T11:02:18;5.38;;;4.50;;
63499;SDS011;49654;51.142;14.924;2023-05-14T11:04:56;6.85;;;5.10;;
63499;SDS011;49654;51.142;14.924;2023-05-14T11:07:28;6.57;;;4.50;;
63499;SDS011;49654;51.142;14.924;2023-05-14T11:10:01;6.03;;;4.72;;
63499;SDS011;49654;51.142;14.924;2023-05-14T11:12:29;7.78;;;4.90;;
63499;SDS011;49654;51.142;14.924;2023-05-14T11:14:59;5.43;;;4.88;;
63499;SDS011;49654;51.142;14.924;2023-05-14T11:17:30;5.30;;;4.28;;
63499;SDS011;49654;51.142;14.924;2023-05-14T11:19:57;5.72;;;4.07;;
63499;SDS011;49654;51.142;14.924;2023-05-14T11:22:24;5.63;;;4.90;;
63499;SDS011;49654;51.142;14.924;2023-05-14T11:24:52;17.95;;;5.25;;
63499;SDS011;49654;51.142;14.924;2023-05-14T11:27:19;5.70;;;5.05;;
63499;SDS011;49654;51.142;14.924;2023-05-14T11:29:47;6.50;;;4.40;;
63499;SDS011;49654;51.142;14.924;2023-05-14T11:32:16;5.85;;;4.30;;
63499;SDS011;49654;51.142;14.924;2023-05-14T11:34:44;5.70;;;4.28;;
63499;SDS011;49654;51.142;14.924;2023-05-14T11:37:12;6.85;;;5.60;;
63499;SDS011;49654;51.142;14.924;2023-05-14T11:39:45;9.52;;;5.65;;
63499;SDS011;49654;51.142;14.924;2023-05-14T11:42:14;6.20;;;5.28;;
63499;SDS011;49654;51.142;14.924;2023-05-14T11:44:43;6.65;;;5.18;;
63499;SDS011;49654;51.142;14.924;2023-05-14T11:47:11;11.95;;;7.22;;
63499;SDS011;49654;51.142;14.924;2023-05-14T11:49:39;7.45;;;5.47;;
63499;SDS011;49654;51.142;14.924;2023-05-14T11:52:07;6.05;;;5.40;;
63499;SDS011;49654;51.142;14.924;2023-05-14T11:54:36;7.15;;;5.22;;
63499;SDS011;49654;51.142;14.924;2023-05-14T11:57:06;6.72;;;4.93;;
63499;SDS011;49654;51.142;14.924;2023-05-14T11:59:35;6.53;;;5.28;;
63499;SDS011;49654;51.142;14.924;2023-05-14T12:02:02;6.93;;;4.93;;
63499;SDS011;49654;51.142;14.924;2023-05-14T12:04:30;8.32;;;5.15;;
63499;SDS011;49654;51.142;14.924;2023-05-14T12:06:59;6.22;;;4.53;;
63499;SDS011;49654;51.142;14.924;2023-05-14T12:09:35;4.93;;;4.10;;
63499;SDS011;49654;51.142;14.924;2023-05-14T12:12:06;5.50;;;4.50;;
63499;SDS011;49654;51.142;14.924;2023-05-14T12:14:35;7.50;;;5.18;;
63499;SDS011;49654;51.142;14.924;2023-05-14T12:17:08;5.70;;;4.18;;
63499;SDS011;49654;51.142;14.924;2023-05-14T12:19:38;4.75;;;3.90;;
63499;SDS011;49654;51.142;14.924;2023-05-14T12:22:08;5.28;;;4.47;;
63499;SDS011;49654;51.142;14.924;2023-05-14T12:24:36;4.50;;;4.05;;
63499;SDS011;49654;51.142;14.924;2023-05-14T12:27:04;4.43;;;4.03;;
63499;SDS011;49654;51.142;14.924;2023-05-14T12:29:35;6.63;;;4.65;;
63499;SDS011;49654;51.142;14.924;2023-05-14T12:32:06;5.70;;;4.50;;
63499;SDS011;49654;51.142;14.924;2023-05-14T12:34:34;6.63;;;4.65;;
63499;SDS011;49654;51.142;14.924;2023-05-14T12:37:01;7.43;;;4.90;;
63499;SDS011;49654;51.142;14.924;2023-05-14T12:39:31;6.20;;;4.80;;
63499;SDS011;49654;51.142;14.924;2023-05-14T12:41:59;8.85;;;5.40;;
63499;SDS011;49654;51.142;14.924;2023-05-14T12:44:26;8.35;;;6.15;;
63499;SDS011;49654;51.142;14.924;2023-05-14T12:46:53;7.30;;;6.03;;
63499;SDS011;49654;51.142;14.924;2023-05-14T12:49:20;11.68;;;6.35;;
63499;SDS011;49654;51.142;14.924;2023-05-14T12:51:47;10.10;;;6.30;;
63499;SDS011;49654;51.142;14.924;2023-05-14T12:54:14;8.60;;;6.00;;
63499;SDS011;49654;51.142;14.924;2023-05-14T12:56:42;7.47;;;6.30;;
63499;SDS011;49654;51.142;14.924;2023-05-14T12:59:09;7.63;;;6.50;;
63499;SDS011;49654;51.142;14.924;2023-05-14T13:01:36;7.57;;;5.88;;
63499;SDS011;49654;51.142;14.924;2023-05-14T13:04:03;7.63;;;5.65;;
63499;SDS011;49654;51.142;14.924;2023-05-14T13:06:30;7.63;;;5.35;;
63499;SDS011;49654;51.142;14.924;2023-05-14T13:08:58;8.45;;;5.35;;
63499;SDS011;49654;51.142;14.924;2023-05-14T13:11:26;9.52;;;5.78;;
63499;SDS011;49654;51.142;14.924;2023-05-14T13:13:57;7.57;;;5.25;;
63499;SDS011;49654;51.142;14.924;2023-05-14T13:16:24;5.80;;;5.07;;
63499;SDS011;49654;51.142;14.924;2023-05-14T13:18:53;7.55;;;5.28;;
63499;SDS011;49654;51.142;14.924;2023-05-14T13:21:20;7.28;;;5.30;;
63499;SDS011;49654;51.142;14.924;2023-05-14T13:23:47;7.28;;;4.88;;
63499;SDS011;49654;51.142;14.924;2023-05-14T13:26:14;7.07;;;4.97;;
63499;SDS011;49654;51.142;14.924;2023-05-14T13:28:41;8.00;;;5.43;;
63499;SDS011;49654;51.142;14.924;2023-05-14T13:31:10;5.80;;;4.68;;
63499;SDS011;49654;51.142;14.924;2023-05-14T13:33:39;5.95;;;5.30;;
63499;SDS011;49654;51.142;14.924;2023-05-14T13:36:07;5.95;;;5.13;;
63499;SDS011;49654;51.142;14.924;2023-05-14T13:38:35;6.20;;;5.32;;
63499;SDS011;49654;51.142;14.924;2023-05-14T13:41:02;8.13;;;5.35;;
63499;SDS011;49654;51.142;14.924;2023-05-14T13:43:29;7.38;;;4.95;;
63499;SDS011;49654;51.142;14.924;2023-05-14T13:45:56;9.68;;;5.35;;
63499;SDS011;49654;51.142;14.924;2023-05-14T13:48:24;7.25;;;5.00;;
63499;SDS011;49654;51.142;14.924;2023-05-14T13:50:52;6.72;;;5.25;;
63499;SDS011;49654;51.142;14.924;2023-05-14T13:53:20;6.03;;;5.40;;
63499;SDS011;49654;51.142;14.924;2023-05-14T13:55:47;6.05;;;5.45;;
63499;SDS011;49654;51.142;14.924;2023-05-14T13:58:15;8.15;;;5.45;;
63499;SDS011;49654;51.142;14.924;2023-05-14T14:00:42;6.53;;;5.15;;
63499;SDS011;49654;51.142;14.924;2023-05-14T14:03:09;6.50;;;5.05;;
63499;SDS011;49654;51.142;14.924;2023-05-14T14:05:37;5.03;;;4.53;;
63499;SDS011;49654;51.142;14.924;2023-05-14T14:08:04;5.47;;;4.75;;
63499;SDS011;49654;51.142;14.924;2023-05-14T14:10:31;6.00;;;4.80;;
63499;SDS011;49654;51.142;14.924;2023-05-14T14:12:58;5.63;;;5.03;;
63499;SDS011;49654;51.142;14.924;2023-05-14T14:15:25;6.55;;;5.03;;
63499;SDS011;49654;51.142;14.924;2023-05-14T14:17:52;7.03;;;4.88;;
63499;SDS011;49654;51.142;14.924;2023-05-14T14:20:19;5.90;;;5.00;;
63499;SDS011;49654;51.142;14.924;2023-05-14T14:22:47;8.70;;;5.28;;
63499;SDS011;49654;51.142;14.924;2023-05-14T14:25:14;5.47;;;4.88;;